<?xml version="1.0" encoding="UTF-8" standalone="no" ?>
<gpx xmlns="http://www.topografix.com/GPX/1/1" xmlns:xsi="http://www.w3.org/2001/XMLSchema-instance" xsi:schemaLocation="http://www.topografix.com/GPX/1/1 http://www.topografix.com/GPX/1/1/gpx.xsd" version="1.1" creator="VisuGPX - https://www.visugpx.com">
  <metadata>
    <name>le cours</name>
    <desc><![CDATA[départ place prés de léglise et peut être fait dans l\'autre sens]]></desc>
  </metadata>
  <trk>
    <name><![CDATA[le cours_1]]></name>
    <trkseg>
      <trkpt lat="47.7411" lon="-2.50091">
        <ele>-43</ele>
        <time>2012-02-17T12:11:16</time>
      </trkpt>
      <trkpt lat="47.7411" lon="-2.50092">
        <ele>-42</ele>
        <time>2012-02-17T12:12:17</time>
      </trkpt>
      <trkpt lat="47.7411" lon="-2.50034">
        <ele>-43</ele>
        <time>2012-02-17T12:13:17</time>
      </trkpt>
      <trkpt lat="47.7408" lon="-2.49945">
        <ele>-46</ele>
        <time>2012-02-17T12:14:17</time>
      </trkpt>
      <trkpt lat="47.7402" lon="-2.4991">
        <ele>-49</ele>
        <time>2012-02-17T12:15:17</time>
      </trkpt>
      <trkpt lat="47.7395" lon="-2.49902">
        <ele>-52</ele>
        <time>2012-02-17T12:16:17</time>
      </trkpt>
      <trkpt lat="47.7388" lon="-2.49881">
        <ele>-56</ele>
        <time>2012-02-17T12:17:18</time>
      </trkpt>
      <trkpt lat="47.7383" lon="-2.49836">
        <ele>-58</ele>
        <time>2012-02-17T12:18:18</time>
      </trkpt>
      <trkpt lat="47.7375" lon="-2.49826">
        <ele>-63</ele>
        <time>2012-02-17T12:19:18</time>
      </trkpt>
      <trkpt lat="47.7369" lon="-2.49771">
        <ele>-65</ele>
        <time>2012-02-17T12:20:18</time>
      </trkpt>
      <trkpt lat="47.7363" lon="-2.49737">
        <ele>-74</ele>
        <time>2012-02-17T12:21:19</time>
      </trkpt>
      <trkpt lat="47.7356" lon="-2.49723">
        <ele>-83</ele>
        <time>2012-02-17T12:22:19</time>
      </trkpt>
      <trkpt lat="47.7355" lon="-2.49805">
        <ele>-78</ele>
        <time>2012-02-17T12:23:20</time>
      </trkpt>
      <trkpt lat="47.7354" lon="-2.49897">
        <ele>-70</ele>
        <time>2012-02-17T12:24:20</time>
      </trkpt>
      <trkpt lat="47.7353" lon="-2.49995">
        <ele>-63</ele>
        <time>2012-02-17T12:25:20</time>
      </trkpt>
      <trkpt lat="47.7352" lon="-2.50103">
        <ele>-59</ele>
        <time>2012-02-17T12:26:20</time>
      </trkpt>
      <trkpt lat="47.7351" lon="-2.50219">
        <ele>-64</ele>
        <time>2012-02-17T12:27:21</time>
      </trkpt>
      <trkpt lat="47.7349" lon="-2.50325">
        <ele>-63</ele>
        <time>2012-02-17T12:28:21</time>
      </trkpt>
      <trkpt lat="47.7349" lon="-2.50427">
        <ele>-64</ele>
        <time>2012-02-17T12:29:22</time>
      </trkpt>
      <trkpt lat="47.7347" lon="-2.50502">
        <ele>-66</ele>
        <time>2012-02-17T12:30:23</time>
      </trkpt>
      <trkpt lat="47.734" lon="-2.5055">
        <ele>-68</ele>
        <time>2012-02-17T12:31:23</time>
      </trkpt>
      <trkpt lat="47.7339" lon="-2.50637">
        <ele>-72</ele>
        <time>2012-02-17T12:32:22</time>
      </trkpt>
      <trkpt lat="47.7332" lon="-2.50681">
        <ele>-80</ele>
        <time>2012-02-17T12:33:24</time>
      </trkpt>
      <trkpt lat="47.7326" lon="-2.50689">
        <ele>-89</ele>
        <time>2012-02-17T12:34:23</time>
      </trkpt>
      <trkpt lat="47.7323" lon="-2.50692">
        <ele>-94</ele>
        <time>2012-02-17T12:35:24</time>
      </trkpt>
      <trkpt lat="47.7321" lon="-2.50794">
        <ele>-92</ele>
        <time>2012-02-17T12:36:24</time>
      </trkpt>
      <trkpt lat="47.7318" lon="-2.50888">
        <ele>-91</ele>
        <time>2012-02-17T12:37:24</time>
      </trkpt>
      <trkpt lat="47.7315" lon="-2.50987">
        <ele>-90</ele>
        <time>2012-02-17T12:38:24</time>
      </trkpt>
      <trkpt lat="47.7315" lon="-2.51097">
        <ele>-89</ele>
        <time>2012-02-17T12:39:26</time>
      </trkpt>
      <trkpt lat="47.7315" lon="-2.51203">
        <ele>-85</ele>
        <time>2012-02-17T12:40:25</time>
      </trkpt>
      <trkpt lat="47.7316" lon="-2.51312">
        <ele>-85</ele>
        <time>2012-02-17T12:41:26</time>
      </trkpt>
      <trkpt lat="47.7317" lon="-2.51423">
        <ele>-88</ele>
        <time>2012-02-17T12:42:26</time>
      </trkpt>
      <trkpt lat="47.7319" lon="-2.51445">
        <ele>-89</ele>
        <time>2012-02-17T12:43:26</time>
      </trkpt>
      <trkpt lat="47.7326" lon="-2.5146">
        <ele>-84</ele>
        <time>2012-02-17T12:44:26</time>
      </trkpt>
      <trkpt lat="47.7332" lon="-2.51507">
        <ele>-81</ele>
        <time>2012-02-17T12:45:28</time>
      </trkpt>
      <trkpt lat="47.7338" lon="-2.51535">
        <ele>-77</ele>
        <time>2012-02-17T12:46:27</time>
      </trkpt>
      <trkpt lat="47.7344" lon="-2.51512">
        <ele>-71</ele>
        <time>2012-02-17T12:47:28</time>
      </trkpt>
      <trkpt lat="47.7348" lon="-2.51566">
        <ele>-78</ele>
        <time>2012-02-17T12:48:28</time>
      </trkpt>
      <trkpt lat="47.7355" lon="-2.51581">
        <ele>-80</ele>
        <time>2012-02-17T12:49:28</time>
      </trkpt>
      <trkpt lat="47.7362" lon="-2.51608">
        <ele>-82</ele>
        <time>2012-02-17T12:50:28</time>
      </trkpt>
      <trkpt lat="47.7369" lon="-2.51619">
        <ele>-84</ele>
        <time>2012-02-17T12:51:29</time>
      </trkpt>
      <trkpt lat="47.737" lon="-2.51719">
        <ele>-85</ele>
        <time>2012-02-17T12:52:29</time>
      </trkpt>
      <trkpt lat="47.7372" lon="-2.51826">
        <ele>-84</ele>
        <time>2012-02-17T12:53:30</time>
      </trkpt>
      <trkpt lat="47.7376" lon="-2.51913">
        <ele>-85</ele>
        <time>2012-02-17T12:54:30</time>
      </trkpt>
      <trkpt lat="47.738" lon="-2.51997">
        <ele>-85</ele>
        <time>2012-02-17T12:55:30</time>
      </trkpt>
      <trkpt lat="47.7387" lon="-2.51983">
        <ele>-82</ele>
        <time>2012-02-17T12:56:30</time>
      </trkpt>
      <trkpt lat="47.7393" lon="-2.52019">
        <ele>-77</ele>
        <time>2012-02-17T12:57:31</time>
      </trkpt>
      <trkpt lat="47.7396" lon="-2.52108">
        <ele>-72</ele>
        <time>2012-02-17T12:58:32</time>
      </trkpt>
      <trkpt lat="47.7401" lon="-2.52165">
        <ele>-63</ele>
        <time>2012-02-17T12:59:32</time>
      </trkpt>
      <trkpt lat="47.7404" lon="-2.52178">
        <ele>-60</ele>
        <time>2012-02-17T13:00:31</time>
      </trkpt>
      <trkpt lat="47.7404" lon="-2.52182">
        <ele>-59</ele>
        <time>2012-02-17T13:01:32</time>
      </trkpt>
      <trkpt lat="47.7405" lon="-2.52205">
        <ele>-61</ele>
        <time>2012-02-17T13:02:32</time>
      </trkpt>
      <trkpt lat="47.7408" lon="-2.52247">
        <ele>-65</ele>
        <time>2012-02-17T13:03:33</time>
      </trkpt>
      <trkpt lat="47.7413" lon="-2.52252">
        <ele>-62</ele>
        <time>2012-02-17T13:04:33</time>
      </trkpt>
      <trkpt lat="47.7415" lon="-2.52283">
        <ele>-56</ele>
        <time>2012-02-17T13:05:33</time>
      </trkpt>
      <trkpt lat="47.7418" lon="-2.52355">
        <ele>-58</ele>
        <time>2012-02-17T13:06:34</time>
      </trkpt>
      <trkpt lat="47.7423" lon="-2.52341">
        <ele>-55</ele>
        <time>2012-02-17T13:07:35</time>
      </trkpt>
      <trkpt lat="47.7429" lon="-2.52316">
        <ele>-51</ele>
        <time>2012-02-17T13:08:34</time>
      </trkpt>
      <trkpt lat="47.7435" lon="-2.52276">
        <ele>-49</ele>
        <time>2012-02-17T13:09:35</time>
      </trkpt>
      <trkpt lat="47.744" lon="-2.52241">
        <ele>-50</ele>
        <time>2012-02-17T13:10:36</time>
      </trkpt>
      <trkpt lat="47.7441" lon="-2.52143">
        <ele>-43</ele>
        <time>2012-02-17T13:11:35</time>
      </trkpt>
      <trkpt lat="47.7442" lon="-2.52038">
        <ele>-46</ele>
        <time>2012-02-17T13:12:37</time>
      </trkpt>
      <trkpt lat="47.7447" lon="-2.52025">
        <ele>-42</ele>
        <time>2012-02-17T13:13:36</time>
      </trkpt>
      <trkpt lat="47.7451" lon="-2.52016">
        <ele>-40</ele>
        <time>2012-02-17T13:14:37</time>
      </trkpt>
      <trkpt lat="47.7455" lon="-2.52007">
        <ele>-38</ele>
        <time>2012-02-17T13:15:38</time>
      </trkpt>
      <trkpt lat="47.7463" lon="-2.51997">
        <ele>-36</ele>
        <time>2012-02-17T13:16:37</time>
      </trkpt>
      <trkpt lat="47.7468" lon="-2.52059">
        <ele>-34</ele>
        <time>2012-02-17T13:17:37</time>
      </trkpt>
      <trkpt lat="47.7476" lon="-2.52046">
        <ele>-32</ele>
        <time>2012-02-17T13:18:38</time>
      </trkpt>
      <trkpt lat="47.7483" lon="-2.52035">
        <ele>-31</ele>
        <time>2012-02-17T13:19:38</time>
      </trkpt>
      <trkpt lat="47.749" lon="-2.52042">
        <ele>-31</ele>
        <time>2012-02-17T13:20:39</time>
      </trkpt>
      <trkpt lat="47.7497" lon="-2.52043">
        <ele>-30</ele>
        <time>2012-02-17T13:21:39</time>
      </trkpt>
      <trkpt lat="47.7502" lon="-2.52025">
        <ele>-27</ele>
        <time>2012-02-17T13:22:39</time>
      </trkpt>
      <trkpt lat="47.7504" lon="-2.52136">
        <ele>-27</ele>
        <time>2012-02-17T13:23:39</time>
      </trkpt>
      <trkpt lat="47.7507" lon="-2.52209">
        <ele>-25</ele>
        <time>2012-02-17T13:24:40</time>
      </trkpt>
      <trkpt lat="47.7514" lon="-2.52206">
        <ele>-24</ele>
        <time>2012-02-17T13:25:40</time>
      </trkpt>
      <trkpt lat="47.7521" lon="-2.52217">
        <ele>-22</ele>
        <time>2012-02-17T13:26:41</time>
      </trkpt>
      <trkpt lat="47.7529" lon="-2.5223">
        <ele>-20</ele>
        <time>2012-02-17T13:27:42</time>
      </trkpt>
      <trkpt lat="47.7536" lon="-2.52206">
        <ele>-18</ele>
        <time>2012-02-17T13:28:41</time>
      </trkpt>
      <trkpt lat="47.7541" lon="-2.52157">
        <ele>-18</ele>
        <time>2012-02-17T13:29:41</time>
      </trkpt>
      <trkpt lat="47.7544" lon="-2.52066">
        <ele>-18</ele>
        <time>2012-02-17T13:30:42</time>
      </trkpt>
      <trkpt lat="47.7545" lon="-2.52046">
        <ele>-17</ele>
        <time>2012-02-17T13:31:42</time>
      </trkpt>
      <trkpt lat="47.7548" lon="-2.51952">
        <ele>-18</ele>
        <time>2012-02-17T13:32:43</time>
      </trkpt>
      <trkpt lat="47.755" lon="-2.51854">
        <ele>-18</ele>
        <time>2012-02-17T13:33:43</time>
      </trkpt>
      <trkpt lat="47.7553" lon="-2.51757">
        <ele>-16</ele>
        <time>2012-02-17T13:34:44</time>
      </trkpt>
      <trkpt lat="47.7556" lon="-2.51652">
        <ele>-17</ele>
        <time>2012-02-17T13:35:43</time>
      </trkpt>
      <trkpt lat="47.7557" lon="-2.51596">
        <ele>-17</ele>
        <time>2012-02-17T13:36:44</time>
      </trkpt>
      <trkpt lat="47.7558" lon="-2.51501">
        <ele>-17</ele>
        <time>2012-02-17T13:37:44</time>
      </trkpt>
      <trkpt lat="47.7559" lon="-2.5139">
        <ele>-17</ele>
        <time>2012-02-17T13:38:45</time>
      </trkpt>
      <trkpt lat="47.756" lon="-2.51382">
        <ele>-18</ele>
        <time>2012-02-17T13:39:45</time>
      </trkpt>
      <trkpt lat="47.7558" lon="-2.51423">
        <ele>-18</ele>
        <time>2012-02-17T13:40:45</time>
      </trkpt>
      <trkpt lat="47.7557" lon="-2.51528">
        <ele>-15</ele>
        <time>2012-02-17T13:41:46</time>
      </trkpt>
      <trkpt lat="47.7554" lon="-2.51604">
        <ele>-15</ele>
        <time>2012-02-17T13:42:47</time>
      </trkpt>
      <trkpt lat="47.7547" lon="-2.51588">
        <ele>-16</ele>
        <time>2012-02-17T13:43:47</time>
      </trkpt>
      <trkpt lat="47.754" lon="-2.51576">
        <ele>-16</ele>
        <time>2012-02-17T13:44:47</time>
      </trkpt>
      <trkpt lat="47.7532" lon="-2.51564">
        <ele>-15</ele>
        <time>2012-02-17T13:45:47</time>
      </trkpt>
      <trkpt lat="47.7525" lon="-2.51559">
        <ele>-16</ele>
        <time>2012-02-17T13:46:47</time>
      </trkpt>
      <trkpt lat="47.7518" lon="-2.51578">
        <ele>-16</ele>
        <time>2012-02-17T13:47:48</time>
      </trkpt>
      <trkpt lat="47.7511" lon="-2.51596">
        <ele>-17</ele>
        <time>2012-02-17T13:48:48</time>
      </trkpt>
      <trkpt lat="47.7503" lon="-2.51615">
        <ele>-17</ele>
        <time>2012-02-17T13:49:48</time>
      </trkpt>
      <trkpt lat="47.7496" lon="-2.51617">
        <ele>-18</ele>
        <time>2012-02-17T13:50:48</time>
      </trkpt>
      <trkpt lat="47.7495" lon="-2.51507">
        <ele>-19</ele>
        <time>2012-02-17T13:51:49</time>
      </trkpt>
      <trkpt lat="47.7493" lon="-2.51397">
        <ele>-21</ele>
        <time>2012-02-17T13:52:49</time>
      </trkpt>
      <trkpt lat="47.7492" lon="-2.51287">
        <ele>-23</ele>
        <time>2012-02-17T13:53:50</time>
      </trkpt>
      <trkpt lat="47.7491" lon="-2.51174">
        <ele>-25</ele>
        <time>2012-02-17T13:54:50</time>
      </trkpt>
      <trkpt lat="47.7489" lon="-2.51069">
        <ele>-27</ele>
        <time>2012-02-17T13:55:50</time>
      </trkpt>
      <trkpt lat="47.7485" lon="-2.50985">
        <ele>-26</ele>
        <time>2012-02-17T13:56:50</time>
      </trkpt>
      <trkpt lat="47.7482" lon="-2.50885">
        <ele>-28</ele>
        <time>2012-02-17T13:57:51</time>
      </trkpt>
      <trkpt lat="47.7483" lon="-2.50824">
        <ele>-28</ele>
        <time>2012-02-17T13:58:51</time>
      </trkpt>
      <trkpt lat="47.7489" lon="-2.50762">
        <ele>-27</ele>
        <time>2012-02-17T13:59:52</time>
      </trkpt>
      <trkpt lat="47.7491" lon="-2.50659">
        <ele>-27</ele>
        <time>2012-02-17T14:00:52</time>
      </trkpt>
      <trkpt lat="47.7491" lon="-2.50551">
        <ele>-27</ele>
        <time>2012-02-17T14:01:52</time>
      </trkpt>
      <trkpt lat="47.7491" lon="-2.5044">
        <ele>-29</ele>
        <time>2012-02-17T14:02:52</time>
      </trkpt>
      <trkpt lat="47.749" lon="-2.50332">
        <ele>-30</ele>
        <time>2012-02-17T14:03:53</time>
      </trkpt>
      <trkpt lat="47.7482" lon="-2.50353">
        <ele>-32</ele>
        <time>2012-02-17T14:04:53</time>
      </trkpt>
      <trkpt lat="47.7475" lon="-2.50371">
        <ele>-33</ele>
        <time>2012-02-17T14:05:54</time>
      </trkpt>
      <trkpt lat="47.7468" lon="-2.50408">
        <ele>-36</ele>
        <time>2012-02-17T14:06:54</time>
      </trkpt>
      <trkpt lat="47.7462" lon="-2.50353">
        <ele>-37</ele>
        <time>2012-02-17T14:07:54</time>
      </trkpt>
      <trkpt lat="47.7457" lon="-2.50291">
        <ele>-38</ele>
        <time>2012-02-17T14:08:55</time>
      </trkpt>
      <trkpt lat="47.7456" lon="-2.50287">
        <ele>-39</ele>
        <time>2012-02-17T14:09:55</time>
      </trkpt>
      <trkpt lat="47.7455" lon="-2.50166">
        <ele>-40</ele>
        <time>2012-02-17T14:10:56</time>
      </trkpt>
      <trkpt lat="47.7455" lon="-2.50061">
        <ele>-44</ele>
        <time>2012-02-17T14:11:56</time>
      </trkpt>
      <trkpt lat="47.7455" lon="-2.49956">
        <ele>-46</ele>
        <time>2012-02-17T14:12:56</time>
      </trkpt>
      <trkpt lat="47.7454" lon="-2.49843">
        <ele>-46</ele>
        <time>2012-02-17T14:13:56</time>
      </trkpt>
      <trkpt lat="47.7453" lon="-2.49741">
        <ele>-49</ele>
        <time>2012-02-17T14:14:57</time>
      </trkpt>
      <trkpt lat="47.7455" lon="-2.49644">
        <ele>-50</ele>
        <time>2012-02-17T14:15:57</time>
      </trkpt>
      <trkpt lat="47.7449" lon="-2.49593">
        <ele>-53</ele>
        <time>2012-02-17T14:16:58</time>
      </trkpt>
      <trkpt lat="47.7443" lon="-2.4955">
        <ele>-52</ele>
        <time>2012-02-17T14:17:58</time>
      </trkpt>
      <trkpt lat="47.7436" lon="-2.49592">
        <ele>-54</ele>
        <time>2012-02-17T14:18:58</time>
      </trkpt>
      <trkpt lat="47.743" lon="-2.49607">
        <ele>-57</ele>
        <time>2012-02-17T14:19:58</time>
      </trkpt>
      <trkpt lat="47.7424" lon="-2.49673">
        <ele>-59</ele>
        <time>2012-02-17T14:20:59</time>
      </trkpt>
      <trkpt lat="47.7419" lon="-2.49717">
        <ele>-60</ele>
        <time>2012-02-17T14:21:59</time>
      </trkpt>
      <trkpt lat="47.7412" lon="-2.49715">
        <ele>-62</ele>
        <time>2012-02-17T14:23:00</time>
      </trkpt>
      <trkpt lat="47.7409" lon="-2.49658">
        <ele>-63</ele>
        <time>2012-02-17T14:24:00</time>
      </trkpt>
      <trkpt lat="47.7405" lon="-2.49572">
        <ele>-65</ele>
        <time>2012-02-17T14:25:00</time>
      </trkpt>
      <trkpt lat="47.7403" lon="-2.49602">
        <ele>-62</ele>
        <time>2012-02-17T14:26:00</time>
      </trkpt>
      <trkpt lat="47.7402" lon="-2.49657">
        <ele>-53</ele>
        <time>2012-02-17T14:27:01</time>
      </trkpt>
      <trkpt lat="47.7402" lon="-2.49701">
        <ele>-46</ele>
        <time>2012-02-17T14:28:02</time>
      </trkpt>
      <trkpt lat="47.7402" lon="-2.49724">
        <ele>-44</ele>
        <time>2012-02-17T14:29:02</time>
      </trkpt>
      <trkpt lat="47.7402" lon="-2.49725">
        <ele>-44</ele>
        <time>2012-02-17T14:30:01</time>
      </trkpt>
      <trkpt lat="47.7402" lon="-2.49729">
        <ele>-44</ele>
        <time>2012-02-17T14:31:03</time>
      </trkpt>
      <trkpt lat="47.7404" lon="-2.49796">
        <ele>-41</ele>
        <time>2012-02-17T14:32:02</time>
      </trkpt>
      <trkpt lat="47.7402" lon="-2.49867">
        <ele>-39</ele>
        <time>2012-02-17T14:33:03</time>
      </trkpt>
      <trkpt lat="47.7402" lon="-2.49914">
        <ele>-36</ele>
        <time>2012-02-17T14:34:04</time>
      </trkpt>
      <trkpt lat="47.7409" lon="-2.49959">
        <ele>-34</ele>
        <time>2012-02-17T14:35:04</time>
      </trkpt>
    </trkseg>
  </trk>
</gpx>